createdAt,value
2016-12-04T00:00:26.379Z,8
2016-12-04T00:01:39.025Z,8
2016-12-04T00:02:51.081Z,8
2016-12-04T00:04:03.338Z,8
2016-12-04T00:05:30.633Z,8
2016-12-04T00:06:42.623Z,8
2016-12-04T00:07:54.077Z,8
2016-12-04T00:10:31.985Z,8
2016-12-04T00:11:43.995Z,8
2016-12-04T00:12:55.714Z,8
2016-12-04T00:14:07.773Z,8
2016-12-04T00:15:19.382Z,8
2016-12-04T00:16:30.916Z,8
2016-12-04T00:17:42.572Z,8
2016-12-04T00:18:53.769Z,8
2016-12-04T00:20:05.385Z,8
2016-12-04T00:21:16.594Z,8
2016-12-04T00:22:28.286Z,8
2016-12-04T00:23:40.106Z,8
2016-12-04T00:24:51.308Z,8
2016-12-04T00:26:03.325Z,8
2016-12-04T00:27:14.951Z,8
2016-12-04T00:28:27.063Z,8
2016-12-04T00:29:38.863Z,8
2016-12-04T00:31:49.248Z,8
2016-12-04T00:33:00.505Z,8
2016-12-04T00:34:12.613Z,8
2016-12-04T00:35:24.197Z,8
2016-12-04T00:36:35.405Z,8
2016-12-04T00:37:47.458Z,8
2016-12-04T00:38:59.070Z,8
2016-12-04T00:40:10.956Z,8
2016-12-04T00:41:22.933Z,7
2016-12-04T00:42:34.204Z,8
2016-12-04T00:43:45.671Z,8
2016-12-04T00:44:57.401Z,8
2016-12-04T00:46:09.008Z,7
2016-12-04T00:47:21.425Z,7
2016-12-04T00:48:32.856Z,7
2016-12-04T00:49:45.135Z,7
2016-12-04T00:50:56.713Z,7
2016-12-04T00:52:08.148Z,7
2016-12-04T00:53:20.092Z,7
2016-12-04T00:54:31.533Z,8
2016-12-04T00:55:43.037Z,8
2016-12-04T00:56:54.397Z,8
2016-12-04T00:58:05.980Z,8
2016-12-04T00:59:17.696Z,8
2016-12-04T01:00:29.397Z,8
2016-12-04T01:01:40.755Z,8
2016-12-04T01:02:52.004Z,8
2016-12-04T01:04:03.291Z,8
2016-12-04T01:05:29.472Z,7
2016-12-04T01:06:43.615Z,8
2016-12-04T01:07:55.094Z,8
2016-12-04T01:09:06.455Z,8
2016-12-04T01:10:17.824Z,7
2016-12-04T01:11:29.920Z,7
2016-12-04T01:12:41.145Z,7
2016-12-04T01:13:52.800Z,7
2016-12-04T01:15:04.142Z,7
2016-12-04T01:16:15.884Z,7
2016-12-04T01:17:27.791Z,7
2016-12-04T01:18:39.801Z,7
2016-12-04T01:19:51.197Z,7
2016-12-04T01:21:02.790Z,7
2016-12-04T01:22:14.131Z,7
2016-12-04T01:23:25.716Z,7
2016-12-04T01:24:37.392Z,7
2016-12-04T01:25:48.855Z,7
2016-12-04T01:27:00.859Z,7
2016-12-04T01:28:12.467Z,7
2016-12-04T01:29:24.313Z,7
2016-12-04T01:30:35.635Z,7
2016-12-04T01:31:46.838Z,7
2016-12-04T01:32:58.897Z,7
2016-12-04T01:34:10.624Z,7
2016-12-04T01:35:22.380Z,7
2016-12-04T01:36:33.888Z,7
2016-12-04T01:37:45.178Z,7
2016-12-04T01:38:56.430Z,7
2016-12-04T01:40:08.160Z,7
2016-12-04T01:41:19.878Z,7
2016-12-04T01:42:31.690Z,7
2016-12-04T01:43:43.000Z,7
2016-12-04T01:44:54.574Z,7
2016-12-04T01:46:09.457Z,7
2016-12-04T01:47:24.695Z,7
2016-12-04T01:48:38.675Z,7
2016-12-04T01:49:53.851Z,7
2016-12-04T01:51:08.067Z,7
2016-12-04T01:52:19.700Z,6
2016-12-04T01:53:31.279Z,6
2016-12-04T01:54:43.035Z,6
2016-12-04T01:55:54.472Z,6
2016-12-04T01:57:05.999Z,6
2016-12-04T01:58:17.855Z,6
2016-12-04T01:59:29.435Z,6
2016-12-04T02:00:41.427Z,6
2016-12-04T02:01:53.318Z,6
2016-12-04T02:03:05.668Z,6
2016-12-04T02:04:17.041Z,6
2016-12-04T02:05:29.250Z,6
2016-12-04T02:06:40.802Z,6
2016-12-04T02:07:52.536Z,6
2016-12-04T02:09:04.179Z,6
2016-12-04T02:10:15.835Z,6
2016-12-04T02:11:27.488Z,6
2016-12-04T02:12:38.855Z,6
2016-12-04T02:13:50.448Z,6
2016-12-04T02:15:01.787Z,6
2016-12-04T02:16:13.000Z,6
2016-12-04T02:17:24.637Z,6
2016-12-04T02:18:36.671Z,6
2016-12-04T02:19:50.863Z,6
2016-12-04T02:21:06.940Z,6
2016-12-04T02:22:18.230Z,6
2016-12-04T02:23:29.770Z,6
2016-12-04T02:24:41.680Z,6
2016-12-04T02:25:53.503Z,6
2016-12-04T02:27:04.823Z,6
2016-12-04T02:28:16.482Z,6
2016-12-04T02:29:27.999Z,6
2016-12-04T02:30:39.848Z,6
2016-12-04T02:31:51.422Z,6
2016-12-04T02:33:02.926Z,6
2016-12-04T02:34:14.553Z,6
2016-12-04T02:35:26.014Z,6
2016-12-04T02:36:37.399Z,6
2016-12-04T02:37:49.046Z,6
2016-12-04T02:39:00.735Z,6
2016-12-04T02:40:12.088Z,6
2016-12-04T02:41:23.863Z,6
2016-12-04T02:42:35.092Z,6
2016-12-04T02:43:46.280Z,6
2016-12-04T02:44:57.764Z,6
2016-12-04T02:46:09.390Z,6
2016-12-04T02:47:21.472Z,6
2016-12-04T02:48:32.891Z,6
2016-12-04T02:49:44.169Z,6
2016-12-04T02:50:55.503Z,6
2016-12-04T02:52:07.174Z,6
2016-12-04T02:53:18.869Z,6
2016-12-04T02:54:30.405Z,6
2016-12-04T02:55:42.053Z,6
2016-12-04T02:56:53.257Z,6
2016-12-04T02:58:04.802Z,6
2016-12-04T02:59:16.398Z,6
2016-12-04T03:00:28.229Z,6
2016-12-04T03:01:39.517Z,6
2016-12-04T03:02:50.780Z,6
2016-12-04T03:04:02.528Z,6
2016-12-04T03:05:14.027Z,6
2016-12-04T03:06:25.317Z,6
2016-12-04T03:07:37.308Z,6
2016-12-04T03:08:48.608Z,6
2016-12-04T03:09:59.876Z,6
2016-12-04T03:11:11.464Z,6
2016-12-04T03:12:22.691Z,6
2016-12-04T03:13:34.527Z,6
2016-12-04T03:14:46.162Z,6
2016-12-04T03:15:58.031Z,6
2016-12-04T03:17:09.568Z,6
2016-12-04T03:18:20.904Z,6
2016-12-04T03:19:32.442Z,6
2016-12-04T03:20:44.183Z,6
2016-12-04T03:21:55.474Z,6
2016-12-04T03:23:07.255Z,6
2016-12-04T03:24:19.400Z,6
2016-12-04T03:25:30.632Z,6
2016-12-04T03:26:41.867Z,6
2016-12-04T03:27:53.739Z,6
2016-12-04T03:29:05.535Z,6
2016-12-04T03:30:17.183Z,6
2016-12-04T03:31:28.847Z,6
2016-12-04T03:32:40.023Z,6
2016-12-04T03:33:51.423Z,6
2016-12-04T03:35:05.622Z,6
2016-12-04T03:36:16.912Z,6
2016-12-04T03:37:28.304Z,6
2016-12-04T03:38:40.136Z,6
2016-12-04T03:39:51.365Z,6
2016-12-04T03:41:03.005Z,6
2016-12-04T03:42:14.691Z,6
2016-12-04T03:43:26.093Z,6
2016-12-04T03:44:37.606Z,6
2016-12-04T03:45:48.808Z,6
2016-12-04T03:47:00.390Z,6
2016-12-04T03:48:11.769Z,6
2016-12-04T03:49:23.300Z,6
2016-12-04T03:50:49.351Z,6
2016-12-04T03:52:00.840Z,6
2016-12-04T03:53:12.695Z,6
2016-12-04T03:54:24.390Z,6
2016-12-04T03:55:35.800Z,6
2016-12-04T03:56:47.486Z,6
2016-12-04T03:57:58.823Z,6
2016-12-04T03:59:10.869Z,6
2016-12-04T04:00:22.544Z,6
2016-12-04T04:01:34.176Z,6
2016-12-04T04:02:46.093Z,6
2016-12-04T04:03:57.505Z,6
2016-12-04T04:05:09.230Z,6
2016-12-04T04:06:20.499Z,6
2016-12-04T04:07:32.185Z,6
2016-12-04T04:08:44.161Z,6
2016-12-04T04:09:55.658Z,6
2016-12-04T04:11:07.739Z,6
2016-12-04T04:12:19.354Z,6
2016-12-04T04:13:31.220Z,6
2016-12-04T04:14:42.597Z,6
2016-12-04T04:15:54.623Z,6
2016-12-04T04:17:06.518Z,6
2016-12-04T04:18:18.108Z,6
2016-12-04T04:19:29.677Z,6
2016-12-04T04:20:41.438Z,6
2016-12-04T04:21:52.784Z,6
2016-12-04T04:23:04.762Z,6
2016-12-04T04:24:16.398Z,6
2016-12-04T04:25:27.729Z,6
2016-12-04T04:26:39.110Z,6
2016-12-04T04:27:50.541Z,6
2016-12-04T04:29:02.190Z,6
2016-12-04T04:30:13.781Z,6
2016-12-04T04:31:25.221Z,6
2016-12-04T04:32:36.710Z,6
2016-12-04T04:33:48.094Z,6
2016-12-04T04:34:59.802Z,6
2016-12-04T04:36:11.037Z,6
2016-12-04T04:37:22.758Z,6
2016-12-04T04:38:34.122Z,6
2016-12-04T04:39:45.710Z,6
2016-12-04T04:40:57.397Z,6
2016-12-04T04:42:08.827Z,6
2016-12-04T04:43:20.611Z,6
2016-12-04T04:44:32.488Z,6
2016-12-04T04:45:43.883Z,6
2016-12-04T04:46:55.959Z,6
2016-12-04T04:48:07.657Z,6
2016-12-04T04:49:21.758Z,6
2016-12-04T04:50:33.376Z,5
2016-12-04T04:51:45.223Z,5
2016-12-04T04:52:57.262Z,5
2016-12-04T04:54:08.731Z,5
2016-12-04T04:55:19.911Z,5
2016-12-04T04:56:31.330Z,5
2016-12-04T04:57:43.139Z,6
2016-12-04T04:58:54.831Z,6
2016-12-04T05:00:06.303Z,5
2016-12-04T05:01:17.722Z,5
2016-12-04T05:02:29.054Z,5
2016-12-04T05:03:40.299Z,6
2016-12-04T05:04:52.223Z,6
2016-12-04T05:06:04.161Z,6
2016-12-04T05:07:15.415Z,6
2016-12-04T05:08:26.658Z,6
2016-12-04T05:09:37.948Z,6
2016-12-04T05:10:49.881Z,6
2016-12-04T05:12:01.150Z,6
2016-12-04T05:13:12.844Z,6
2016-12-04T05:14:24.302Z,6
2016-12-04T05:15:35.548Z,6
2016-12-04T05:16:47.535Z,6
2016-12-04T05:17:59.155Z,6
2016-12-04T05:19:10.461Z,6
2016-12-04T05:20:21.911Z,6
2016-12-04T05:21:33.599Z,6
2016-12-04T05:22:45.299Z,6
2016-12-04T05:23:56.595Z,6
2016-12-04T05:25:08.278Z,6
2016-12-04T05:26:19.522Z,6
2016-12-04T05:27:31.213Z,6
2016-12-04T05:28:43.070Z,6
2016-12-04T05:29:54.513Z,5
2016-12-04T05:31:05.830Z,5
2016-12-04T05:32:17.566Z,5
2016-12-04T05:33:29.151Z,6
2016-12-04T05:34:40.827Z,6
2016-12-04T05:35:52.416Z,6
2016-12-04T05:37:03.732Z,6
2016-12-04T05:38:15.548Z,6
2016-12-04T05:39:27.300Z,6
2016-12-04T05:40:38.901Z,6
2016-12-04T05:41:50.215Z,6
2016-12-04T05:43:01.853Z,6
2016-12-04T05:44:13.594Z,6
2016-12-04T05:45:25.068Z,6
2016-12-04T05:46:36.636Z,6
2016-12-04T05:47:47.862Z,6
2016-12-04T05:48:59.226Z,6
2016-12-04T05:50:10.684Z,6
2016-12-04T05:51:22.391Z,6
2016-12-04T05:52:34.074Z,6
2016-12-04T05:53:45.617Z,6
2016-12-04T05:54:57.104Z,5
2016-12-04T05:56:08.565Z,5
2016-12-04T05:57:20.002Z,6
2016-12-04T05:58:32.463Z,6
2016-12-04T05:59:44.203Z,5
2016-12-04T06:00:56.133Z,6
2016-12-04T06:02:07.955Z,5
2016-12-04T06:03:22.202Z,5
2016-12-04T06:04:34.141Z,5
2016-12-04T06:05:45.547Z,5
2016-12-04T06:06:57.135Z,5
2016-12-04T06:08:08.773Z,5
2016-12-04T06:09:20.221Z,5
2016-12-04T06:10:31.905Z,5
2016-12-04T06:11:43.670Z,5
2016-12-04T06:12:55.012Z,5
2016-12-04T06:14:06.765Z,5
2016-12-04T06:15:18.197Z,5
2016-12-04T06:16:29.832Z,5
2016-12-04T06:17:41.504Z,5
2016-12-04T06:18:52.988Z,5
2016-12-04T06:20:04.635Z,5
2016-12-04T06:21:16.592Z,5
2016-12-04T06:22:28.409Z,5
2016-12-04T06:23:40.200Z,5
2016-12-04T06:24:51.529Z,5
2016-12-04T06:26:03.032Z,5
2016-12-04T06:27:14.769Z,5
2016-12-04T06:28:26.941Z,5
2016-12-04T06:29:38.216Z,5
2016-12-04T06:30:49.443Z,5
2016-12-04T06:32:00.868Z,5
2016-12-04T06:33:12.590Z,5
2016-12-04T06:34:24.524Z,5
2016-12-04T06:35:35.914Z,5
2016-12-04T06:36:47.142Z,5
2016-12-04T06:37:58.469Z,5
2016-12-04T06:39:10.493Z,5
2016-12-04T06:40:22.014Z,5
2016-12-04T06:41:33.824Z,5
2016-12-04T06:42:45.696Z,5
2016-12-04T06:43:56.980Z,5
2016-12-04T06:45:08.203Z,5
2016-12-04T06:46:20.057Z,5
2016-12-04T06:47:31.394Z,5
2016-12-04T06:48:42.918Z,5
2016-12-04T06:49:54.207Z,5
2016-12-04T06:51:05.655Z,5
2016-12-04T06:52:17.693Z,5
2016-12-04T06:53:29.175Z,5
2016-12-04T06:54:41.029Z,5
2016-12-04T06:55:52.308Z,5
2016-12-04T06:57:03.634Z,5
2016-12-04T06:58:15.664Z,5
2016-12-04T06:59:27.147Z,5
2016-12-04T07:00:38.587Z,5
2016-12-04T07:01:49.807Z,5
2016-12-04T07:03:01.474Z,5
2016-12-04T07:04:13.592Z,5
2016-12-04T07:05:25.791Z,5
2016-12-04T07:06:37.428Z,5
2016-12-04T07:07:49.207Z,5
2016-12-04T07:09:00.809Z,5
2016-12-04T07:10:13.082Z,5
2016-12-04T07:11:24.532Z,5
2016-12-04T07:12:36.000Z,5
2016-12-04T07:13:47.796Z,5
2016-12-04T07:14:59.236Z,5
2016-12-04T07:16:11.333Z,5
2016-12-04T07:17:40.273Z,5
2016-12-04T07:19:06.435Z,5
2016-12-04T07:20:17.613Z,5
2016-12-04T07:21:29.104Z,5
2016-12-04T07:22:40.846Z,5
2016-12-04T07:23:52.343Z,5
2016-12-04T07:25:03.782Z,5
2016-12-04T07:26:14.994Z,5
2016-12-04T07:27:26.605Z,5
2016-12-04T07:28:38.452Z,5
2016-12-04T07:29:49.805Z,5
2016-12-04T07:31:01.513Z,5
2016-12-04T07:32:13.211Z,5
2016-12-04T07:33:24.812Z,5
2016-12-04T07:34:36.341Z,5
2016-12-04T07:35:48.082Z,5
2016-12-04T07:36:59.404Z,5
2016-12-04T07:38:10.863Z,6
2016-12-04T07:39:22.497Z,5
2016-12-04T07:40:33.926Z,6
2016-12-04T07:41:45.725Z,6
2016-12-04T07:42:57.463Z,6
2016-12-04T07:44:09.418Z,6
2016-12-04T07:45:21.268Z,5
2016-12-04T07:46:32.563Z,6
2016-12-04T07:47:44.033Z,5
2016-12-04T07:48:55.462Z,5
2016-12-04T07:50:07.398Z,5
2016-12-04T07:51:19.237Z,5
2016-12-04T07:52:30.592Z,5
2016-12-04T07:53:42.182Z,6
2016-12-04T07:54:53.480Z,6
2016-12-04T07:56:05.559Z,6
2016-12-04T07:57:17.643Z,6
2016-12-04T07:58:29.400Z,6
2016-12-04T07:59:41.206Z,6
2016-12-04T08:00:52.624Z,6
2016-12-04T08:02:04.053Z,6
2016-12-04T08:03:15.889Z,6
2016-12-04T08:04:27.947Z,6
2016-12-04T08:05:41.247Z,6
2016-12-04T08:06:53.473Z,6
2016-12-04T08:08:05.227Z,6
2016-12-04T08:09:17.642Z,6
2016-12-04T08:10:29.833Z,6
2016-12-04T08:11:41.338Z,6
2016-12-04T08:12:52.977Z,6
2016-12-04T08:14:04.478Z,6
2016-12-04T08:15:16.089Z,6
2016-12-04T08:16:27.545Z,6
2016-12-04T08:17:39.248Z,6
2016-12-04T08:18:50.631Z,6
2016-12-04T08:20:02.225Z,6
2016-12-04T08:21:14.007Z,6
2016-12-04T08:22:25.500Z,6
2016-12-04T08:23:36.688Z,6
2016-12-04T08:24:47.897Z,6
2016-12-04T08:25:59.075Z,6
2016-12-04T08:27:10.946Z,6
2016-12-04T08:28:22.825Z,5
2016-12-04T08:29:34.431Z,6
2016-12-04T08:30:46.049Z,6
2016-12-04T08:32:00.096Z,6
2016-12-04T08:33:12.894Z,6
2016-12-04T08:34:24.937Z,6
2016-12-04T08:35:39.377Z,6
2016-12-04T08:36:51.041Z,6
2016-12-04T08:38:03.949Z,6
2016-12-04T08:39:26.723Z,6
2016-12-04T08:40:43.982Z,6
2016-12-04T08:42:03.855Z,6
2016-12-04T08:43:22.728Z,6
2016-12-04T08:44:36.400Z,6
2016-12-04T08:45:48.724Z,7
2016-12-04T08:47:00.921Z,7
2016-12-04T08:48:26.952Z,7
2016-12-04T08:49:38.956Z,7
2016-12-04T08:50:50.977Z,7
2016-12-04T08:52:04.581Z,7
2016-12-04T08:53:16.339Z,7
2016-12-04T08:54:28.084Z,7
2016-12-04T08:55:39.986Z,7
2016-12-04T08:56:52.013Z,7
2016-12-04T08:58:04.083Z,7
2016-12-04T08:59:16.037Z,7
2016-12-04T09:00:28.523Z,7
2016-12-04T09:01:40.169Z,7
2016-12-04T09:02:52.932Z,7
2016-12-04T09:04:04.699Z,8
2016-12-04T09:05:16.928Z,8
2016-12-04T09:06:28.790Z,8
2016-12-04T09:07:40.334Z,7
2016-12-04T09:08:52.529Z,7
2016-12-04T09:10:04.050Z,7
2016-12-04T09:11:15.792Z,7
2016-12-04T09:12:27.613Z,7
2016-12-04T09:13:40.339Z,8
2016-12-04T09:14:52.157Z,8
2016-12-04T09:16:03.887Z,8
2016-12-04T09:17:15.284Z,8
2016-12-04T09:18:28.216Z,8
2016-12-04T09:19:39.737Z,8
2016-12-04T09:21:06.752Z,8
2016-12-04T09:22:18.258Z,8
2016-12-04T09:23:29.637Z,8
2016-12-04T09:24:41.365Z,8
2016-12-04T09:25:52.677Z,8
2016-12-04T09:27:07.108Z,8
2016-12-04T09:29:47.926Z,8
2016-12-04T09:30:59.606Z,8
2016-12-04T09:32:27.779Z,8
2016-12-04T09:33:41.701Z,8
2016-12-04T09:34:59.455Z,8
2016-12-04T09:36:11.745Z,8
2016-12-04T09:37:28.061Z,8
2016-12-04T09:38:40.347Z,8
2016-12-04T09:39:52.809Z,8
2016-12-04T09:41:05.163Z,8
2016-12-04T09:42:17.261Z,8
2016-12-04T09:43:29.571Z,8
2016-12-04T09:44:41.382Z,8
2016-12-04T09:45:53.091Z,8
2016-12-04T09:47:05.576Z,8
2016-12-04T09:48:20.011Z,8
2016-12-04T09:49:34.357Z,8
2016-12-04T09:50:46.805Z,8
2016-12-04T09:52:00.010Z,8
2016-12-04T09:53:11.570Z,8
2016-12-04T09:54:23.362Z,8
2016-12-04T09:55:34.932Z,8
2016-12-04T09:57:01.777Z,8
2016-12-04T09:58:13.347Z,8
2016-12-04T09:59:25.063Z,8
2016-12-04T10:00:38.657Z,8
2016-12-04T10:01:50.299Z,8
2016-12-04T10:03:01.786Z,8
2016-12-04T10:04:13.946Z,8
2016-12-04T10:05:25.690Z,8
2016-12-04T10:06:38.933Z,8
2016-12-04T10:07:50.583Z,8
2016-12-04T10:09:03.298Z,8
2016-12-04T10:10:16.057Z,8
2016-12-04T10:11:27.307Z,8
2016-12-04T10:12:38.738Z,8
2016-12-04T10:13:51.043Z,8
2016-12-04T10:15:02.571Z,8
2016-12-04T10:16:14.348Z,8
2016-12-04T10:17:26.623Z,8
2016-12-04T10:18:38.111Z,8
2016-12-04T10:19:49.690Z,8
2016-12-04T10:21:03.340Z,8
2016-12-04T10:22:15.207Z,8
2016-12-04T10:23:27.879Z,8
2016-12-04T10:24:56.055Z,8
2016-12-04T10:26:09.451Z,9
2016-12-04T10:27:21.112Z,9
2016-12-04T10:28:33.763Z,9
2016-12-04T10:29:45.851Z,9
2016-12-04T10:30:58.789Z,9
2016-12-04T10:32:10.734Z,9
2016-12-04T10:33:22.380Z,9
2016-12-04T10:34:34.714Z,9
2016-12-04T10:35:46.074Z,9
2016-12-04T10:37:04.011Z,9
2016-12-04T10:38:16.721Z,9
2016-12-04T10:39:46.892Z,9
2016-12-04T10:41:17.176Z,9
2016-12-04T10:42:43.042Z,9
2016-12-04T10:43:58.222Z,9
2016-12-04T10:45:12.363Z,9
2016-12-04T10:46:34.031Z,9
2016-12-04T10:47:50.431Z,9
2016-12-04T10:49:06.178Z,9
2016-12-04T10:50:20.293Z,9
2016-12-04T10:51:35.662Z,9
2016-12-04T10:52:50.141Z,9
2016-12-04T10:54:04.690Z,9
2016-12-04T10:55:19.060Z,9
2016-12-04T10:56:33.028Z,10
2016-12-04T10:57:47.707Z,10
2016-12-04T10:59:02.047Z,10
2016-12-04T11:00:16.699Z,10
2016-12-04T11:03:02.650Z,10
2016-12-04T11:04:17.451Z,10
2016-12-04T11:05:35.165Z,10
2016-12-04T11:06:49.891Z,10
2016-12-04T11:08:04.947Z,10
2016-12-04T11:09:19.724Z,10
2016-12-04T11:10:34.678Z,10
2016-12-04T11:11:49.632Z,10
2016-12-04T11:13:19.878Z,10
2016-12-04T11:14:34.537Z,10
2016-12-04T11:15:48.768Z,10
2016-12-04T11:17:02.654Z,10
2016-12-04T11:18:17.383Z,10
2016-12-04T11:19:31.119Z,10
2016-12-04T11:20:45.735Z,10
2016-12-04T11:21:59.626Z,10
2016-12-04T11:23:14.199Z,10
2016-12-04T11:24:28.850Z,10
2016-12-04T11:25:43.612Z,10
2016-12-04T11:26:58.817Z,10
2016-12-04T11:28:13.161Z,10
2016-12-04T11:29:28.000Z,11
2016-12-04T11:30:42.112Z,11
2016-12-04T11:31:56.013Z,11
2016-12-04T11:33:10.434Z,11
2016-12-04T11:34:24.705Z,11
2016-12-04T11:35:39.394Z,11
2016-12-04T11:36:53.975Z,11
2016-12-04T11:38:08.416Z,11
2016-12-04T11:39:22.954Z,11
2016-12-04T11:40:37.242Z,11
2016-12-04T11:41:51.691Z,10
2016-12-04T11:43:05.913Z,10
2016-12-04T11:44:19.696Z,10
2016-12-04T11:45:35.015Z,10
2016-12-04T11:46:49.670Z,10
2016-12-04T11:48:03.849Z,10
2016-12-04T11:49:18.258Z,10
2016-12-04T11:50:33.698Z,11
2016-12-04T11:51:49.325Z,11
2016-12-04T11:53:03.750Z,11
2016-12-04T11:54:18.060Z,11
2016-12-04T11:55:32.460Z,11
2016-12-04T11:56:46.879Z,11
2016-12-04T11:59:30.269Z,11
2016-12-04T12:00:44.709Z,11
2016-12-04T12:01:58.660Z,11
2016-12-04T12:03:13.492Z,11
2016-12-04T12:04:27.534Z,11
2016-12-04T12:05:42.128Z,11
2016-12-04T12:06:56.158Z,11
2016-12-04T12:08:10.933Z,11
2016-12-04T12:09:25.473Z,11
2016-12-04T12:10:39.646Z,11
2016-12-04T12:11:53.867Z,11
2016-12-04T12:13:08.987Z,11
2016-12-04T12:14:25.443Z,11
2016-12-04T12:15:40.256Z,11
2016-12-04T12:16:54.101Z,11
2016-12-04T12:18:08.348Z,11
2016-12-04T12:19:22.416Z,11
2016-12-04T12:20:36.722Z,11
2016-12-04T12:21:51.718Z,11
2016-12-04T12:23:08.813Z,11
2016-12-04T12:24:23.701Z,11
2016-12-04T12:25:37.657Z,11
2016-12-04T12:26:52.276Z,11
2016-12-04T12:28:07.964Z,11
2016-12-04T12:29:22.449Z,11
2016-12-04T12:30:36.786Z,11
2016-12-04T12:31:50.958Z,11
2016-12-04T12:33:06.279Z,11
2016-12-04T12:34:21.952Z,11
2016-12-04T12:35:36.346Z,11
2016-12-04T12:36:51.485Z,11
2016-12-04T12:38:05.629Z,11
2016-12-04T12:39:35.305Z,11
2016-12-04T12:40:49.741Z,11
2016-12-04T12:42:04.115Z,11
2016-12-04T12:43:18.454Z,11
2016-12-04T12:44:33.269Z,12
2016-12-04T12:45:48.161Z,12
2016-12-04T12:47:02.715Z,12
2016-12-04T12:48:18.433Z,12
2016-12-04T12:49:33.534Z,12
2016-12-04T12:50:49.277Z,12
2016-12-04T12:52:03.693Z,12
2016-12-04T12:53:18.270Z,12
2016-12-04T12:54:32.735Z,12
2016-12-04T12:55:47.569Z,12
2016-12-04T12:57:01.442Z,12
2016-12-04T12:58:16.039Z,12
2016-12-04T12:59:30.486Z,12
2016-12-04T13:00:44.785Z,12
2016-12-04T13:01:59.270Z,12
2016-12-04T13:03:13.990Z,12
2016-12-04T13:04:28.497Z,12
2016-12-04T13:05:43.165Z,12
2016-12-04T13:06:57.042Z,12
2016-12-04T13:08:11.051Z,12
2016-12-04T13:09:25.972Z,12
2016-12-04T13:10:40.845Z,12
2016-12-04T13:11:56.336Z,12
2016-12-04T13:13:10.798Z,12
2016-12-04T13:14:24.987Z,12
2016-12-04T13:15:38.766Z,12
2016-12-04T13:16:52.547Z,12
2016-12-04T13:18:07.896Z,12
2016-12-04T13:19:23.230Z,12
2016-12-04T13:20:38.025Z,12
2016-12-04T13:21:52.167Z,12
2016-12-04T13:23:06.557Z,12
2016-12-04T13:24:21.610Z,12
2016-12-04T13:25:36.450Z,12
2016-12-04T13:26:52.497Z,12
2016-12-04T13:28:07.754Z,12
2016-12-04T13:29:23.208Z,12
2016-12-04T13:30:37.903Z,13
2016-12-04T13:32:07.536Z,13
2016-12-04T13:33:24.119Z,13
2016-12-04T13:34:40.571Z,13
2016-12-04T13:35:55.473Z,13
2016-12-04T13:39:14.754Z,13
2016-12-04T13:40:30.580Z,13
2016-12-04T13:41:48.458Z,13
2016-12-04T13:43:04.091Z,13
2016-12-04T13:44:20.953Z,13
2016-12-04T13:45:36.824Z,13
2016-12-04T13:46:51.842Z,13
2016-12-04T13:48:08.747Z,13
2016-12-04T13:49:23.067Z,13
2016-12-04T13:50:38.279Z,13
2016-12-04T13:51:53.657Z,13
2016-12-04T13:53:08.117Z,13
2016-12-04T13:54:23.488Z,13
2016-12-04T13:55:40.225Z,13
2016-12-04T13:56:56.970Z,13
2016-12-04T13:58:12.266Z,13
2016-12-04T13:59:26.872Z,13
2016-12-04T14:00:42.079Z,13
2016-12-04T14:01:55.817Z,13
2016-12-04T14:03:09.571Z,13
2016-12-04T14:04:28.060Z,13
2016-12-04T14:05:43.238Z,13
2016-12-04T14:06:58.031Z,13
2016-12-04T14:08:12.004Z,13
2016-12-04T14:09:26.865Z,13
2016-12-04T14:10:41.661Z,13
2016-12-04T14:11:55.999Z,13
2016-12-04T14:13:10.771Z,13
2016-12-04T14:14:24.887Z,13
2016-12-04T14:15:38.772Z,13
2016-12-04T14:16:53.002Z,13
2016-12-04T14:18:07.671Z,13
2016-12-04T14:19:23.970Z,13
2016-12-04T14:20:37.938Z,13
2016-12-04T14:22:08.150Z,13
2016-12-04T14:23:22.661Z,13
2016-12-04T14:24:38.310Z,13
2016-12-04T14:25:54.132Z,13
2016-12-04T14:27:26.044Z,13
2016-12-04T14:28:43.602Z,13
2016-12-04T14:30:02.220Z,13
2016-12-04T14:31:20.890Z,13
2016-12-04T14:32:38.182Z,13
2016-12-04T14:33:57.000Z,13
2016-12-04T14:35:11.895Z,12
2016-12-04T14:36:30.031Z,12
2016-12-04T14:37:44.558Z,12
2016-12-04T14:39:00.435Z,12
2016-12-04T14:40:15.851Z,12
2016-12-04T14:41:33.284Z,12
2016-12-04T14:42:48.048Z,12
2016-12-04T14:44:02.543Z,12
2016-12-04T14:45:16.521Z,12
2016-12-04T14:46:32.926Z,12
2016-12-04T14:47:48.416Z,12
2016-12-04T14:49:02.774Z,12
2016-12-04T14:50:31.772Z,12
2016-12-04T14:51:46.649Z,12
2016-12-04T14:53:01.905Z,12
2016-12-04T14:54:16.268Z,12
2016-12-04T14:55:31.589Z,12
2016-12-04T14:56:46.445Z,12
2016-12-04T14:58:01.776Z,12
2016-12-04T14:59:17.316Z,12
2016-12-04T15:00:35.031Z,12
2016-12-04T15:01:49.077Z,12
2016-12-04T15:03:03.055Z,12
2016-12-04T15:04:18.300Z,12
2016-12-04T15:05:33.723Z,12
2016-12-04T15:06:50.693Z,12
2016-12-04T15:08:05.152Z,12
2016-12-04T15:09:19.906Z,12
2016-12-04T15:10:34.690Z,12
2016-12-04T15:11:50.412Z,12
2016-12-04T15:13:06.112Z,12
2016-12-04T15:14:20.076Z,12
2016-12-04T15:15:34.959Z,12
2016-12-04T15:16:58.949Z,12
2016-12-04T15:18:13.658Z,12
2016-12-04T15:19:29.036Z,12
2016-12-04T15:20:43.089Z,12
2016-12-04T15:21:57.019Z,12
2016-12-04T15:23:11.377Z,12
2016-12-04T15:24:25.634Z,12
2016-12-04T15:25:41.071Z,12
2016-12-04T15:26:55.905Z,12
2016-12-04T15:28:10.517Z,12
2016-12-04T15:29:25.055Z,12
2016-12-04T15:30:39.404Z,12
2016-12-04T15:31:54.275Z,12
2016-12-04T15:33:08.861Z,12
2016-12-04T15:34:22.690Z,12
2016-12-04T15:35:36.576Z,12
2016-12-04T15:36:51.051Z,12
2016-12-04T15:38:06.078Z,12
2016-12-04T15:39:20.534Z,12
2016-12-04T15:41:00.902Z,12
2016-12-04T15:42:15.453Z,12
2016-12-04T15:43:29.164Z,12
2016-12-04T15:44:44.352Z,12
2016-12-04T15:45:59.711Z,12
2016-12-04T15:47:13.913Z,12
2016-12-04T15:48:28.415Z,12
2016-12-04T15:49:42.595Z,12
2016-12-04T15:50:57.100Z,12
2016-12-04T15:52:11.550Z,12
2016-12-04T15:53:27.213Z,11
2016-12-04T15:54:42.242Z,11
2016-12-04T15:55:56.439Z,11
2016-12-04T15:57:10.797Z,11
2016-12-04T15:58:25.089Z,11
2016-12-04T15:59:40.692Z,11
2016-12-04T16:00:55.014Z,11
2016-12-04T16:02:08.847Z,11
2016-12-04T16:03:23.885Z,11
2016-12-04T16:04:38.822Z,11
2016-12-04T16:05:53.326Z,11
2016-12-04T16:07:07.741Z,11
2016-12-04T16:08:21.977Z,11
2016-12-04T16:09:36.654Z,11
2016-12-04T16:10:52.622Z,11
2016-12-04T16:12:07.916Z,11
2016-12-04T16:13:22.964Z,11
2016-12-04T16:14:37.531Z,11
2016-12-04T16:15:51.586Z,11
2016-12-04T16:17:05.417Z,11
2016-12-04T16:18:21.971Z,11
2016-12-04T16:19:36.753Z,11
2016-12-04T16:20:51.438Z,11
2016-12-04T16:22:05.604Z,11
2016-12-04T16:23:34.549Z,11
2016-12-04T16:24:49.148Z,11
2016-12-04T16:26:06.271Z,11
2016-12-04T16:27:20.552Z,11
2016-12-04T16:28:34.598Z,11
2016-12-04T16:29:49.258Z,11
2016-12-04T16:31:03.596Z,11
2016-12-04T16:32:18.045Z,11
2016-12-04T16:33:33.874Z,11
2016-12-04T16:34:49.264Z,11
2016-12-04T16:36:03.962Z,11
2016-12-04T16:37:19.359Z,11
2016-12-04T16:38:33.245Z,11
2016-12-04T16:39:48.400Z,11
2016-12-04T16:41:03.935Z,11
2016-12-04T16:42:18.613Z,10
2016-12-04T16:43:33.993Z,11
2016-12-04T16:44:48.134Z,11
2016-12-04T16:46:02.498Z,11
2016-12-04T16:47:16.860Z,11
2016-12-04T16:48:31.503Z,11
2016-12-04T16:49:45.408Z,11
2016-12-04T16:50:59.702Z,11
2016-12-04T16:52:13.860Z,11
2016-12-04T16:53:27.854Z,11
2016-12-04T16:54:42.048Z,11
2016-12-04T16:56:11.119Z,11
2016-12-04T16:57:25.698Z,11
2016-12-04T16:58:39.475Z,11
2016-12-04T16:59:54.409Z,11
2016-12-04T17:01:09.532Z,11
2016-12-04T17:02:26.124Z,11
2016-12-04T17:03:40.637Z,11
2016-12-04T17:04:56.015Z,11
2016-12-04T17:06:13.526Z,11
2016-12-04T17:07:31.832Z,11
2016-12-04T17:08:47.497Z,11
2016-12-04T17:10:02.662Z,11
2016-12-04T17:11:18.618Z,11
2016-12-04T17:12:44.533Z,11
2016-12-04T17:14:07.992Z,11
2016-12-04T17:15:24.491Z,11
2016-12-04T17:16:39.938Z,11
2016-12-04T17:17:55.199Z,11
2016-12-04T17:19:10.486Z,11
2016-12-04T17:20:26.026Z,11
2016-12-04T17:21:46.247Z,11
2016-12-04T17:23:02.066Z,11
2016-12-04T17:24:18.447Z,11
2016-12-04T17:25:33.395Z,11
2016-12-04T17:26:50.974Z,11
2016-12-04T17:28:09.486Z,11
2016-12-04T17:29:25.801Z,11
2016-12-04T17:30:41.336Z,11
2016-12-04T17:31:57.766Z,11
2016-12-04T17:33:17.365Z,11
2016-12-04T17:34:33.713Z,11
2016-12-04T17:35:49.286Z,11
2016-12-04T17:37:07.008Z,10
2016-12-04T17:38:22.484Z,10
2016-12-04T17:39:37.034Z,10
2016-12-04T17:40:51.894Z,10
2016-12-04T17:42:06.740Z,10
2016-12-04T17:43:20.883Z,10
2016-12-04T17:44:35.226Z,10
2016-12-04T17:45:50.369Z,10
2016-12-04T17:47:05.243Z,10
2016-12-04T17:48:20.070Z,10
2016-12-04T17:49:34.305Z,10
2016-12-04T17:50:49.340Z,10
2016-12-04T17:52:04.086Z,10
2016-12-04T17:53:18.978Z,10
2016-12-04T17:54:33.346Z,10
2016-12-04T17:55:48.014Z,10
2016-12-04T17:57:03.453Z,10
2016-12-04T17:58:18.821Z,10
2016-12-04T17:59:33.174Z,10
2016-12-04T18:00:47.889Z,10